sensor_id;sensor_type;location;lat;lon;timestamp;temperature;humidity
5041;DHT22;2539;52.568;13.364;2023-04-06T00:02:22;4.70;99.90
5041;DHT22;2539;52.568;13.364;2023-04-06T00:04:48;4.70;99.90
5041;DHT22;2539;52.568;13.364;2023-04-06T00:07:15;4.70;99.90
5041;DHT22;2539;52.568;13.364;2023-04-06T00:09:41;4.70;99.90
5041;DHT22;2539;52.568;13.364;2023-04-06T00:14:34;4.70;99.90
5041;DHT22;2539;52.568;13.364;2023-04-06T00:17:00;4.70;99.90
5041;DHT22;2539;52.568;13.364;2023-04-06T00:19:27;6.60;99.90
5041;DHT22;2539;52.568;13.364;2023-04-06T00:21:54;4.60;99.90
5041;DHT22;2539;52.568;13.364;2023-04-06T00:24:20;5.80;99.90
5041;DHT22;2539;52.568;13.364;2023-04-06T00:26:46;4.50;99.90
5041;DHT22;2539;52.568;13.364;2023-04-06T00:29:12;4.50;99.90
5041;DHT22;2539;52.568;13.364;2023-04-06T00:31:38;4.40;99.90
5041;DHT22;2539;52.568;13.364;2023-04-06T00:34:05;4.40;99.90
5041;DHT22;2539;52.568;13.364;2023-04-06T00:38:58;4.40;99.90
5041;DHT22;2539;52.568;13.364;2023-04-06T00:41:25;4.40;99.90
5041;DHT22;2539;52.568;13.364;2023-04-06T00:43:51;4.50;99.90
5041;DHT22;2539;52.568;13.364;2023-04-06T00:46:17;4.40;99.90
5041;DHT22;2539;52.568;13.364;2023-04-06T00:48:44;4.40;99.90
5041;DHT22;2539;52.568;13.364;2023-04-06T00:51:10;4.60;99.90
5041;DHT22;2539;52.568;13.364;2023-04-06T00:53:36;4.60;99.90
5041;DHT22;2539;52.568;13.364;2023-04-06T00:56:02;4.50;99.90
5041;DHT22;2539;52.568;13.364;2023-04-06T00:58:29;4.60;99.90
5041;DHT22;2539;52.568;13.364;2023-04-06T01:00:55;4.50;99.90
5041;DHT22;2539;52.568;13.364;2023-04-06T01:03:22;4.50;99.90
5041;DHT22;2539;52.568;13.364;2023-04-06T01:05:48;4.50;99.90
5041;DHT22;2539;52.568;13.364;2023-04-06T01:08:15;4.50;99.90
5041;DHT22;2539;52.568;13.364;2023-04-06T01:10:41;4.40;99.90
5041;DHT22;2539;52.568;13.364;2023-04-06T01:13:07;4.50;99.90
5041;DHT22;2539;52.568;13.364;2023-04-06T01:15:35;4.50;99.90
5041;DHT22;2539;52.568;13.364;2023-04-06T01:18:04;4.40;99.90
5041;DHT22;2539;52.568;13.364;2023-04-06T01:20:32;4.40;99.90
5041;DHT22;2539;52.568;13.364;2023-04-06T01:22:59;4.50;99.90
5041;DHT22;2539;52.568;13.364;2023-04-06T01:25:25;4.40;99.90
5041;DHT22;2539;52.568;13.364;2023-04-06T01:27:51;4.40;99.90
5041;DHT22;2539;52.568;13.364;2023-04-06T01:30:17;4.30;99.90
5041;DHT22;2539;52.568;13.364;2023-04-06T01:32:44;4.30;99.90
5041;DHT22;2539;52.568;13.364;2023-04-06T01:35:11;4.30;99.90
5041;DHT22;2539;52.568;13.364;2023-04-06T01:37:37;4.30;99.90
5041;DHT22;2539;52.568;13.364;2023-04-06T01:40:03;4.20;99.90
5041;DHT22;2539;52.568;13.364;2023-04-06T01:42:30;4.10;99.90
5041;DHT22;2539;52.568;13.364;2023-04-06T01:47:23;4.10;99.90
5041;DHT22;2539;52.568;13.364;2023-04-06T01:52:17;4.00;99.90
5041;DHT22;2539;52.568;13.364;2023-04-06T01:57:10;4.00;99.90
5041;DHT22;2539;52.568;13.364;2023-04-06T01:59:37;4.00;99.90
5041;DHT22;2539;52.568;13.364;2023-04-06T02:02:03;4.00;99.90
5041;DHT22;2539;52.568;13.364;2023-04-06T02:04:29;4.00;99.90
5041;DHT22;2539;52.568;13.364;2023-04-06T02:09:22;4.00;99.90
5041;DHT22;2539;52.568;13.364;2023-04-06T02:16:42;3.90;99.90
5041;DHT22;2539;52.568;13.364;2023-04-06T02:19:08;3.90;99.90
5041;DHT22;2539;52.568;13.364;2023-04-06T02:21:34;3.90;99.90
5041;DHT22;2539;52.568;13.364;2023-04-06T02:28:54;3.90;99.90
5041;DHT22;2539;52.568;13.364;2023-04-06T02:31:20;3.80;99.90
5041;DHT22;2539;52.568;13.364;2023-04-06T02:33:46;3.80;99.90
5041;DHT22;2539;52.568;13.364;2023-04-06T02:41:06;3.70;99.90
5041;DHT22;2539;52.568;13.364;2023-04-06T02:43:32;3.70;99.90
5041;DHT22;2539;52.568;13.364;2023-04-06T02:48:25;3.60;99.90
5041;DHT22;2539;52.568;13.364;2023-04-06T02:58:12;3.20;99.90
5041;DHT22;2539;52.568;13.364;2023-04-06T03:00:38;3.10;99.90
5041;DHT22;2539;52.568;13.364;2023-04-06T03:03:04;3.10;99.90
5041;DHT22;2539;52.568;13.364;2023-04-06T03:10:24;3.00;99.90
5041;DHT22;2539;52.568;13.364;2023-04-06T03:12:50;3.00;99.90
5041;DHT22;2539;52.568;13.364;2023-04-06T03:15:17;3.00;99.90
5041;DHT22;2539;52.568;13.364;2023-04-06T03:17:43;2.90;99.90
5041;DHT22;2539;52.568;13.364;2023-04-06T03:20:09;2.90;99.90
5041;DHT22;2539;52.568;13.364;2023-04-06T03:25:03;3.00;99.90
5041;DHT22;2539;52.568;13.364;2023-04-06T03:29:56;2.90;99.90
5041;DHT22;2539;52.568;13.364;2023-04-06T03:34:49;2.80;99.90
5041;DHT22;2539;52.568;13.364;2023-04-06T03:39:42;2.80;99.90
5041;DHT22;2539;52.568;13.364;2023-04-06T03:49:28;2.70;99.90
5041;DHT22;2539;52.568;13.364;2023-04-06T03:51:56;2.80;99.90
5041;DHT22;2539;52.568;13.364;2023-04-06T03:54:22;2.70;99.90
5041;DHT22;2539;52.568;13.364;2023-04-06T03:56:48;2.70;99.90
5041;DHT22;2539;52.568;13.364;2023-04-06T03:59:15;2.60;99.90
5041;DHT22;2539;52.568;13.364;2023-04-06T04:01:41;2.60;99.90
5041;DHT22;2539;52.568;13.364;2023-04-06T04:04:08;2.60;99.90
5041;DHT22;2539;52.568;13.364;2023-04-06T04:06:34;2.60;99.90
5041;DHT22;2539;52.568;13.364;2023-04-06T04:09:02;2.60;99.90
5041;DHT22;2539;52.568;13.364;2023-04-06T04:11:28;2.60;99.90
5041;DHT22;2539;52.568;13.364;2023-04-06T04:13:54;2.60;99.90
5041;DHT22;2539;52.568;13.364;2023-04-06T04:16:20;2.50;99.90
5041;DHT22;2539;52.568;13.364;2023-04-06T04:18:46;2.60;99.90
5041;DHT22;2539;52.568;13.364;2023-04-06T04:21:13;2.50;99.90
5041;DHT22;2539;52.568;13.364;2023-04-06T04:23:39;2.50;99.90
5041;DHT22;2539;52.568;13.364;2023-04-06T04:26:06;2.50;99.90
5041;DHT22;2539;52.568;13.364;2023-04-06T04:28:32;2.50;99.90
5041;DHT22;2539;52.568;13.364;2023-04-06T04:30:58;2.50;99.90
5041;DHT22;2539;52.568;13.364;2023-04-06T04:33:24;2.40;99.90
5041;DHT22;2539;52.568;13.364;2023-04-06T04:35:51;2.50;99.90
5041;DHT22;2539;52.568;13.364;2023-04-06T04:38:18;2.40;99.90
5041;DHT22;2539;52.568;13.364;2023-04-06T04:40:44;2.40;99.90
5041;DHT22;2539;52.568;13.364;2023-04-06T04:43:10;2.40;99.90
5041;DHT22;2539;52.568;13.364;2023-04-06T04:45:37;2.30;99.90
5041;DHT22;2539;52.568;13.364;2023-04-06T04:48:02;2.40;99.90
5041;DHT22;2539;52.568;13.364;2023-04-06T04:50:30;2.30;99.90
5041;DHT22;2539;52.568;13.364;2023-04-06T04:52:56;2.30;99.90
5041;DHT22;2539;52.568;13.364;2023-04-06T04:55:21;2.30;99.90
5041;DHT22;2539;52.568;13.364;2023-04-06T04:57:48;2.30;99.90
5041;DHT22;2539;52.568;13.364;2023-04-06T05:00:14;2.30;99.90
5041;DHT22;2539;52.568;13.364;2023-04-06T05:02:41;2.30;99.90
5041;DHT22;2539;52.568;13.364;2023-04-06T05:05:07;2.40;99.90
5041;DHT22;2539;52.568;13.364;2023-04-06T05:07:34;2.40;99.90
5041;DHT22;2539;52.568;13.364;2023-04-06T05:10:00;2.60;99.90
5041;DHT22;2539;52.568;13.364;2023-04-06T05:12:26;2.50;99.90
5041;DHT22;2539;52.568;13.364;2023-04-06T05:14:55;2.60;99.90
5041;DHT22;2539;52.568;13.364;2023-04-06T05:17:22;2.70;99.90
5041;DHT22;2539;52.568;13.364;2023-04-06T05:19:48;2.70;99.90
5041;DHT22;2539;52.568;13.364;2023-04-06T05:22:15;2.80;99.90
5041;DHT22;2539;52.568;13.364;2023-04-06T05:24:44;2.90;99.90
5041;DHT22;2539;52.568;13.364;2023-04-06T05:27:10;2.90;99.90
5041;DHT22;2539;52.568;13.364;2023-04-06T05:29:36;3.00;99.90
5041;DHT22;2539;52.568;13.364;2023-04-06T05:32:03;3.10;99.90
5041;DHT22;2539;52.568;13.364;2023-04-06T05:36:56;3.20;99.90
5041;DHT22;2539;52.568;13.364;2023-04-06T05:39:22;3.30;99.90
5041;DHT22;2539;52.568;13.364;2023-04-06T05:41:48;3.40;99.90
5041;DHT22;2539;52.568;13.364;2023-04-06T05:49:08;3.60;99.90
5041;DHT22;2539;52.568;13.364;2023-04-06T06:08:42;4.10;99.90
5041;DHT22;2539;52.568;13.364;2023-04-06T06:11:09;4.20;99.90
5041;DHT22;2539;52.568;13.364;2023-04-06T06:16:00;4.30;99.90
5041;DHT22;2539;52.568;13.364;2023-04-06T06:25:50;4.60;99.90
5041;DHT22;2539;52.568;13.364;2023-04-06T06:28:16;4.70;99.90
5041;DHT22;2539;52.568;13.364;2023-04-06T06:35:36;4.80;99.90
5041;DHT22;2539;52.568;13.364;2023-04-06T06:45:22;5.10;99.90
5041;DHT22;2539;52.568;13.364;2023-04-06T06:47:48;5.10;99.90
5041;DHT22;2539;52.568;13.364;2023-04-06T06:55:09;5.40;99.90
5041;DHT22;2539;52.568;13.364;2023-04-06T07:00:05;5.60;99.90
5041;DHT22;2539;52.568;13.364;2023-04-06T07:02:34;5.60;99.90
5041;DHT22;2539;52.568;13.364;2023-04-06T07:05:02;5.70;99.90
5041;DHT22;2539;52.568;13.364;2023-04-06T07:07:30;5.80;99.90
5041;DHT22;2539;52.568;13.364;2023-04-06T07:12:23;5.90;99.90
5041;DHT22;2539;52.568;13.364;2023-04-06T07:22:09;6.30;99.90
5041;DHT22;2539;52.568;13.364;2023-04-06T07:27:02;6.50;99.90
5041;DHT22;2539;52.568;13.364;2023-04-06T07:29:29;6.60;99.90
5041;DHT22;2539;52.568;13.364;2023-04-06T07:31:55;6.60;99.90
5041;DHT22;2539;52.568;13.364;2023-04-06T07:34:22;6.60;99.90
5041;DHT22;2539;52.568;13.364;2023-04-06T07:39:15;6.70;99.90
5041;DHT22;2539;52.568;13.364;2023-04-06T07:41:41;6.80;99.90
5041;DHT22;2539;52.568;13.364;2023-04-06T07:44:07;6.90;99.90
5041;DHT22;2539;52.568;13.364;2023-04-06T07:46:34;6.90;99.90
5041;DHT22;2539;52.568;13.364;2023-04-06T07:49:02;7.10;99.90
5041;DHT22;2539;52.568;13.364;2023-04-06T07:51:29;7.10;99.90
5041;DHT22;2539;52.568;13.364;2023-04-06T07:53:55;7.10;99.90
5041;DHT22;2539;52.568;13.364;2023-04-06T07:56:23;7.20;99.90
5041;DHT22;2539;52.568;13.364;2023-04-06T07:58:49;7.30;99.90
5041;DHT22;2539;52.568;13.364;2023-04-06T08:01:15;7.30;99.90
5041;DHT22;2539;52.568;13.364;2023-04-06T08:03:41;7.40;99.90
5041;DHT22;2539;52.568;13.364;2023-04-06T08:06:08;7.40;99.90
5041;DHT22;2539;52.568;13.364;2023-04-06T08:08:34;7.50;99.90
5041;DHT22;2539;52.568;13.364;2023-04-06T08:11:01;7.50;99.90
5041;DHT22;2539;52.568;13.364;2023-04-06T08:13:30;7.60;99.90
5041;DHT22;2539;52.568;13.364;2023-04-06T08:15:57;7.70;99.90
5041;DHT22;2539;52.568;13.364;2023-04-06T08:18:24;7.80;99.90
5041;DHT22;2539;52.568;13.364;2023-04-06T08:20:50;7.90;99.90
5041;DHT22;2539;52.568;13.364;2023-04-06T08:23:17;7.90;99.90
5041;DHT22;2539;52.568;13.364;2023-04-06T08:25:43;7.90;99.90
5041;DHT22;2539;52.568;13.364;2023-04-06T08:28:09;8.00;99.90
5041;DHT22;2539;52.568;13.364;2023-04-06T08:30:39;8.00;99.90
5041;DHT22;2539;52.568;13.364;2023-04-06T08:33:06;8.20;99.90
5041;DHT22;2539;52.568;13.364;2023-04-06T08:35:32;8.20;99.90
5041;DHT22;2539;52.568;13.364;2023-04-06T08:37:58;8.20;99.90
5041;DHT22;2539;52.568;13.364;2023-04-06T08:40:25;8.20;99.90
5041;DHT22;2539;52.568;13.364;2023-04-06T08:42:56;8.30;99.90
5041;DHT22;2539;52.568;13.364;2023-04-06T08:45:23;8.30;99.90
5041;DHT22;2539;52.568;13.364;2023-04-06T08:47:50;8.40;99.90
5041;DHT22;2539;52.568;13.364;2023-04-06T08:50:18;8.50;99.90
5041;DHT22;2539;52.568;13.364;2023-04-06T08:52:47;8.50;99.90
5041;DHT22;2539;52.568;13.364;2023-04-06T08:55:14;8.50;99.90
5041;DHT22;2539;52.568;13.364;2023-04-06T08:57:41;8.60;99.90
5041;DHT22;2539;52.568;13.364;2023-04-06T09:00:10;8.60;99.90
5041;DHT22;2539;52.568;13.364;2023-04-06T09:02:39;9.10;99.90
5041;DHT22;2539;52.568;13.364;2023-04-06T09:05:08;8.70;99.90
5041;DHT22;2539;52.568;13.364;2023-04-06T09:07:35;8.70;99.80
5041;DHT22;2539;52.568;13.364;2023-04-06T09:10:03;8.90;99.80
5041;DHT22;2539;52.568;13.364;2023-04-06T09:12:30;8.90;99.70
5041;DHT22;2539;52.568;13.364;2023-04-06T09:14:58;9.10;99.20
5041;DHT22;2539;52.568;13.364;2023-04-06T09:17:29;8.90;98.80
5041;DHT22;2539;52.568;13.364;2023-04-06T09:19:57;9.00;98.30
5041;DHT22;2539;52.568;13.364;2023-04-06T09:22:24;8.90;98.00
5041;DHT22;2539;52.568;13.364;2023-04-06T09:24:54;9.10;96.80
5041;DHT22;2539;52.568;13.364;2023-04-06T09:27:30;9.00;96.50
5041;DHT22;2539;52.568;13.364;2023-04-06T09:30:07;9.20;96.70
5041;DHT22;2539;52.568;13.364;2023-04-06T09:32:51;9.20;95.70
5041;DHT22;2539;52.568;13.364;2023-04-06T09:35:19;9.10;95.30
5041;DHT22;2539;52.568;13.364;2023-04-06T09:37:50;7.80;95.20
5041;DHT22;2539;52.568;13.364;2023-04-06T09:40:16;9.50;96.10
5041;DHT22;2539;52.568;13.364;2023-04-06T09:42:46;9.40;93.60
5041;DHT22;2539;52.568;13.364;2023-04-06T09:45:12;9.30;93.80
5041;DHT22;2539;52.568;13.364;2023-04-06T09:47:43;9.50;93.90
5041;DHT22;2539;52.568;13.364;2023-04-06T09:50:12;9.60;93.90
5041;DHT22;2539;52.568;13.364;2023-04-06T09:52:50;9.80;93.70
5041;DHT22;2539;52.568;13.364;2023-04-06T09:55:40;10.00;92.70
5041;DHT22;2539;52.568;13.364;2023-04-06T09:58:09;10.10;91.50
5041;DHT22;2539;52.568;13.364;2023-04-06T10:00:57;10.10;90.90
5041;DHT22;2539;52.568;13.364;2023-04-06T10:06:11;10.10;90.70
5041;DHT22;2539;52.568;13.364;2023-04-06T10:08:39;10.10;90.10
5041;DHT22;2539;52.568;13.364;2023-04-06T10:11:10;10.10;88.80
5041;DHT22;2539;52.568;13.364;2023-04-06T10:13:37;10.10;89.40
5041;DHT22;2539;52.568;13.364;2023-04-06T10:16:04;9.80;88.40
5041;DHT22;2539;52.568;13.364;2023-04-06T10:18:31;9.50;90.10
5041;DHT22;2539;52.568;13.364;2023-04-06T10:21:08;9.30;89.90
5041;DHT22;2539;52.568;13.364;2023-04-06T10:23:36;9.60;90.00
5041;DHT22;2539;52.568;13.364;2023-04-06T10:26:12;9.90;87.20
5041;DHT22;2539;52.568;13.364;2023-04-06T10:28:41;9.90;86.80
5041;DHT22;2539;52.568;13.364;2023-04-06T10:31:07;10.60;72.70
5041;DHT22;2539;52.568;13.364;2023-04-06T10:33:34;10.70;67.30
5041;DHT22;2539;52.568;13.364;2023-04-06T10:36:14;10.70;68.40
5041;DHT22;2539;52.568;13.364;2023-04-06T10:38:42;10.90;71.10
5041;DHT22;2539;52.568;13.364;2023-04-06T10:41:10;11.10;71.90
5041;DHT22;2539;52.568;13.364;2023-04-06T10:43:38;11.10;70.70
5041;DHT22;2539;52.568;13.364;2023-04-06T10:46:06;10.90;69.80
5041;DHT22;2539;52.568;13.364;2023-04-06T10:48:43;10.50;71.00
5041;DHT22;2539;52.568;13.364;2023-04-06T10:51:14;10.50;71.70
5041;DHT22;2539;52.568;13.364;2023-04-06T10:53:45;10.80;70.80
5041;DHT22;2539;52.568;13.364;2023-04-06T10:56:17;10.90;68.50
5041;DHT22;2539;52.568;13.364;2023-04-06T10:58:47;10.90;69.30
5041;DHT22;2539;52.568;13.364;2023-04-06T11:01:18;11.10;68.50
5041;DHT22;2539;52.568;13.364;2023-04-06T11:03:51;11.30;67.50
5041;DHT22;2539;52.568;13.364;2023-04-06T11:06:25;11.40;65.70
5041;DHT22;2539;52.568;13.364;2023-04-06T11:08:53;11.30;65.40
5041;DHT22;2539;52.568;13.364;2023-04-06T11:11:21;11.20;66.10
5041;DHT22;2539;52.568;13.364;2023-04-06T11:13:56;11.10;66.00
5041;DHT22;2539;52.568;13.364;2023-04-06T11:16:30;11.30;66.50
5041;DHT22;2539;52.568;13.364;2023-04-06T11:19:02;11.30;66.10
5041;DHT22;2539;52.568;13.364;2023-04-06T11:21:36;11.20;66.60
5041;DHT22;2539;52.568;13.364;2023-04-06T11:24:06;11.10;66.20
5041;DHT22;2539;52.568;13.364;2023-04-06T11:26:44;11.00;66.20
5041;DHT22;2539;52.568;13.364;2023-04-06T11:29:12;11.00;65.50
5041;DHT22;2539;52.568;13.364;2023-04-06T11:32:05;11.00;66.10
5041;DHT22;2539;52.568;13.364;2023-04-06T11:34:38;11.00;66.00
5041;DHT22;2539;52.568;13.364;2023-04-06T11:37:10;11.20;65.90
5041;DHT22;2539;52.568;13.364;2023-04-06T11:39:43;11.30;65.90
5041;DHT22;2539;52.568;13.364;2023-04-06T11:42:09;11.40;66.00
5041;DHT22;2539;52.568;13.364;2023-04-06T11:44:37;11.50;65.60
5041;DHT22;2539;52.568;13.364;2023-04-06T11:47:09;11.60;65.70
5041;DHT22;2539;52.568;13.364;2023-04-06T11:49:40;11.90;66.00
5041;DHT22;2539;52.568;13.364;2023-04-06T11:52:27;12.00;65.10
5041;DHT22;2539;52.568;13.364;2023-04-06T11:54:54;11.90;64.60
5041;DHT22;2539;52.568;13.364;2023-04-06T11:57:23;11.80;65.40
5041;DHT22;2539;52.568;13.364;2023-04-06T11:59:55;11.90;64.50
5041;DHT22;2539;52.568;13.364;2023-04-06T12:02:21;11.90;64.80
5041;DHT22;2539;52.568;13.364;2023-04-06T12:04:47;11.80;63.60
5041;DHT22;2539;52.568;13.364;2023-04-06T12:07:13;11.90;64.70
5041;DHT22;2539;52.568;13.364;2023-04-06T12:09:41;11.70;65.10
5041;DHT22;2539;52.568;13.364;2023-04-06T12:12:07;11.70;65.60
5041;DHT22;2539;52.568;13.364;2023-04-06T12:14:33;11.70;65.10
5041;DHT22;2539;52.568;13.364;2023-04-06T12:17:00;11.70;65.30
5041;DHT22;2539;52.568;13.364;2023-04-06T12:19:26;11.70;66.00
5041;DHT22;2539;52.568;13.364;2023-04-06T12:21:53;11.70;65.40
5041;DHT22;2539;52.568;13.364;2023-04-06T12:24:23;11.50;65.60
5041;DHT22;2539;52.568;13.364;2023-04-06T12:26:49;11.50;66.00
5041;DHT22;2539;52.568;13.364;2023-04-06T12:29:15;11.40;66.50
5041;DHT22;2539;52.568;13.364;2023-04-06T12:31:42;11.30;66.80
5041;DHT22;2539;52.568;13.364;2023-04-06T12:34:10;11.10;65.80
5041;DHT22;2539;52.568;13.364;2023-04-06T12:36:38;11.00;66.50
5041;DHT22;2539;52.568;13.364;2023-04-06T12:39:05;11.10;66.80
5041;DHT22;2539;52.568;13.364;2023-04-06T12:41:31;11.30;66.60
5041;DHT22;2539;52.568;13.364;2023-04-06T12:43:58;11.40;67.40
5041;DHT22;2539;52.568;13.364;2023-04-06T12:46:25;11.40;68.10
5041;DHT22;2539;52.568;13.364;2023-04-06T12:48:52;11.40;68.40
5041;DHT22;2539;52.568;13.364;2023-04-06T12:51:23;11.20;66.40
5041;DHT22;2539;52.568;13.364;2023-04-06T12:53:49;11.00;67.30
5041;DHT22;2539;52.568;13.364;2023-04-06T12:56:17;11.10;67.20
5041;DHT22;2539;52.568;13.364;2023-04-06T12:58:44;11.30;65.90
5041;DHT22;2539;52.568;13.364;2023-04-06T13:01:11;11.50;65.90
5041;DHT22;2539;52.568;13.364;2023-04-06T13:03:42;11.50;64.80
5041;DHT22;2539;52.568;13.364;2023-04-06T13:08:35;11.60;65.20
5041;DHT22;2539;52.568;13.364;2023-04-06T13:11:05;11.70;65.80
5041;DHT22;2539;52.568;13.364;2023-04-06T13:13:34;12.00;65.50
5041;DHT22;2539;52.568;13.364;2023-04-06T13:16:03;11.80;64.20
5041;DHT22;2539;52.568;13.364;2023-04-06T13:18:31;11.70;64.20
5041;DHT22;2539;52.568;13.364;2023-04-06T13:20:58;11.90;64.80
5041;DHT22;2539;52.568;13.364;2023-04-06T13:23:28;11.80;64.40
5041;DHT22;2539;52.568;13.364;2023-04-06T13:26:02;11.80;65.50
5041;DHT22;2539;52.568;13.364;2023-04-06T13:28:29;11.60;66.40
5041;DHT22;2539;52.568;13.364;2023-04-06T13:30:58;11.70;66.90
5041;DHT22;2539;52.568;13.364;2023-04-06T13:33:25;11.80;67.50
5041;DHT22;2539;52.568;13.364;2023-04-06T13:35:52;12.10;66.90
5041;DHT22;2539;52.568;13.364;2023-04-06T13:38:19;12.30;66.70
5041;DHT22;2539;52.568;13.364;2023-04-06T13:40:46;12.20;65.00
5041;DHT22;2539;52.568;13.364;2023-04-06T13:43:12;12.20;65.60
5041;DHT22;2539;52.568;13.364;2023-04-06T13:45:38;12.20;66.00
5041;DHT22;2539;52.568;13.364;2023-04-06T13:48:05;12.30;66.50
5041;DHT22;2539;52.568;13.364;2023-04-06T13:50:32;12.00;66.20
5041;DHT22;2539;52.568;13.364;2023-04-06T13:52:59;12.00;66.90
5041;DHT22;2539;52.568;13.364;2023-04-06T13:55:25;12.00;67.30
5041;DHT22;2539;52.568;13.364;2023-04-06T13:57:52;11.90;67.00
5041;DHT22;2539;52.568;13.364;2023-04-06T14:00:18;11.90;67.80
5041;DHT22;2539;52.568;13.364;2023-04-06T14:02:45;11.90;67.60
5041;DHT22;2539;52.568;13.364;2023-04-06T14:05:11;11.90;67.70
5041;DHT22;2539;52.568;13.364;2023-04-06T14:07:38;11.80;67.40
5041;DHT22;2539;52.568;13.364;2023-04-06T14:10:04;11.70;66.60
5041;DHT22;2539;52.568;13.364;2023-04-06T14:12:31;11.60;66.50
5041;DHT22;2539;52.568;13.364;2023-04-06T14:14:57;11.50;67.50
5041;DHT22;2539;52.568;13.364;2023-04-06T14:17:24;11.60;67.90
5041;DHT22;2539;52.568;13.364;2023-04-06T14:19:51;13.90;69.00
5041;DHT22;2539;52.568;13.364;2023-04-06T14:22:17;11.40;67.30
5041;DHT22;2539;52.568;13.364;2023-04-06T14:24:43;11.50;67.20
5041;DHT22;2539;52.568;13.364;2023-04-06T14:27:10;11.40;68.40
5041;DHT22;2539;52.568;13.364;2023-04-06T14:29:37;11.40;68.30
5041;DHT22;2539;52.568;13.364;2023-04-06T14:32:03;11.40;68.70
5041;DHT22;2539;52.568;13.364;2023-04-06T14:34:29;11.40;68.10
5041;DHT22;2539;52.568;13.364;2023-04-06T14:36:56;11.40;68.60
5041;DHT22;2539;52.568;13.364;2023-04-06T14:39:22;11.40;68.20
5041;DHT22;2539;52.568;13.364;2023-04-06T14:41:48;11.50;67.40
5041;DHT22;2539;52.568;13.364;2023-04-06T14:44:15;11.40;67.80
5041;DHT22;2539;52.568;13.364;2023-04-06T14:46:42;11.50;68.60
5041;DHT22;2539;52.568;13.364;2023-04-06T14:49:09;11.60;68.50
5041;DHT22;2539;52.568;13.364;2023-04-06T14:51:38;11.50;67.90
5041;DHT22;2539;52.568;13.364;2023-04-06T14:54:05;11.60;68.30
5041;DHT22;2539;52.568;13.364;2023-04-06T14:56:31;11.60;68.60
5041;DHT22;2539;52.568;13.364;2023-04-06T14:59:00;11.50;68.30
5041;DHT22;2539;52.568;13.364;2023-04-06T15:01:27;11.40;68.00
5041;DHT22;2539;52.568;13.364;2023-04-06T15:03:52;11.40;68.30
5041;DHT22;2539;52.568;13.364;2023-04-06T15:06:18;11.50;69.10
5041;DHT22;2539;52.568;13.364;2023-04-06T15:08:46;11.40;67.80
5041;DHT22;2539;52.568;13.364;2023-04-06T15:11:13;11.40;68.80
5041;DHT22;2539;52.568;13.364;2023-04-06T15:13:40;11.50;69.10
5041;DHT22;2539;52.568;13.364;2023-04-06T15:16:07;11.40;68.00
5041;DHT22;2539;52.568;13.364;2023-04-06T15:18:34;11.50;67.90
5041;DHT22;2539;52.568;13.364;2023-04-06T15:21:01;11.50;67.80
5041;DHT22;2539;52.568;13.364;2023-04-06T15:23:29;12.40;66.60
5041;DHT22;2539;52.568;13.364;2023-04-06T15:25:56;12.40;68.00
5041;DHT22;2539;52.568;13.364;2023-04-06T15:28:22;14.10;68.90
5041;DHT22;2539;52.568;13.364;2023-04-06T15:30:49;13.30;67.10
5041;DHT22;2539;52.568;13.364;2023-04-06T15:33:15;13.50;65.90
5041;DHT22;2539;52.568;13.364;2023-04-06T15:35:42;13.50;67.20
5041;DHT22;2539;52.568;13.364;2023-04-06T15:38:11;13.30;65.80
5041;DHT22;2539;52.568;13.364;2023-04-06T15:40:45;12.90;71.30
5041;DHT22;2539;52.568;13.364;2023-04-06T15:43:12;12.70;67.90
5041;DHT22;2539;52.568;13.364;2023-04-06T15:45:39;12.70;68.10
5041;DHT22;2539;52.568;13.364;2023-04-06T15:48:07;12.80;68.00
5041;DHT22;2539;52.568;13.364;2023-04-06T15:50:34;13.40;67.50
5041;DHT22;2539;52.568;13.364;2023-04-06T15:53:01;14.30;63.10
5041;DHT22;2539;52.568;13.364;2023-04-06T15:55:26;14.30;64.80
5041;DHT22;2539;52.568;13.364;2023-04-06T15:57:52;14.70;62.30
5041;DHT22;2539;52.568;13.364;2023-04-06T16:00:18;15.00;62.10
5041;DHT22;2539;52.568;13.364;2023-04-06T16:02:43;15.30;61.60
5041;DHT22;2539;52.568;13.364;2023-04-06T16:05:10;15.10;60.00
5041;DHT22;2539;52.568;13.364;2023-04-06T16:07:36;14.80;61.00
5041;DHT22;2539;52.568;13.364;2023-04-06T16:10:03;14.60;61.80
5041;DHT22;2539;52.568;13.364;2023-04-06T16:12:31;14.30;61.80
5041;DHT22;2539;52.568;13.364;2023-04-06T16:14:59;14.20;61.30
5041;DHT22;2539;52.568;13.364;2023-04-06T16:17:25;13.90;62.00
5041;DHT22;2539;52.568;13.364;2023-04-06T16:19:51;13.40;64.10
5041;DHT22;2539;52.568;13.364;2023-04-06T16:22:17;13.20;64.60
5041;DHT22;2539;52.568;13.364;2023-04-06T16:24:43;13.00;65.80
5041;DHT22;2539;52.568;13.364;2023-04-06T16:27:09;12.70;65.80
5041;DHT22;2539;52.568;13.364;2023-04-06T16:29:36;12.50;68.50
5041;DHT22;2539;52.568;13.364;2023-04-06T16:32:03;12.20;68.80
5041;DHT22;2539;52.568;13.364;2023-04-06T16:34:33;12.20;68.40
5041;DHT22;2539;52.568;13.364;2023-04-06T16:37:00;12.20;67.70
5041;DHT22;2539;52.568;13.364;2023-04-06T16:39:26;12.10;68.40
5041;DHT22;2539;52.568;13.364;2023-04-06T16:41:52;11.70;67.20
5041;DHT22;2539;52.568;13.364;2023-04-06T16:44:19;11.80;68.00
5041;DHT22;2539;52.568;13.364;2023-04-06T16:49:12;11.40;68.20
5041;DHT22;2539;52.568;13.364;2023-04-06T16:51:40;11.10;69.80
5041;DHT22;2539;52.568;13.364;2023-04-06T16:56:33;10.60;70.40
5041;DHT22;2539;52.568;13.364;2023-04-06T16:58:59;10.60;71.20
5041;DHT22;2539;52.568;13.364;2023-04-06T17:01:27;10.40;72.60
5041;DHT22;2539;52.568;13.364;2023-04-06T17:06:21;10.10;74.70
5041;DHT22;2539;52.568;13.364;2023-04-06T17:08:48;10.00;76.20
5041;DHT22;2539;52.568;13.364;2023-04-06T17:11:15;9.90;77.20
5041;DHT22;2539;52.568;13.364;2023-04-06T17:13:42;9.80;77.00
5041;DHT22;2539;52.568;13.364;2023-04-06T17:16:09;9.70;77.10
5041;DHT22;2539;52.568;13.364;2023-04-06T17:21:05;9.60;77.80
5041;DHT22;2539;52.568;13.364;2023-04-06T17:23:31;9.50;78.70
5041;DHT22;2539;52.568;13.364;2023-04-06T17:26:03;9.40;78.60
5041;DHT22;2539;52.568;13.364;2023-04-06T17:28:31;9.40;79.00
5041;DHT22;2539;52.568;13.364;2023-04-06T17:30:58;9.30;79.80
5041;DHT22;2539;52.568;13.364;2023-04-06T17:33:27;9.20;80.50
5041;DHT22;2539;52.568;13.364;2023-04-06T17:40:49;8.90;82.20
5041;DHT22;2539;52.568;13.364;2023-04-06T17:45:43;8.80;83.10
5041;DHT22;2539;52.568;13.364;2023-04-06T17:48:09;8.70;83.00
5041;DHT22;2539;52.568;13.364;2023-04-06T17:50:38;8.80;83.90
5041;DHT22;2539;52.568;13.364;2023-04-06T17:53:04;8.70;84.20
5041;DHT22;2539;52.568;13.364;2023-04-06T17:57:57;8.50;85.90
5041;DHT22;2539;52.568;13.364;2023-04-06T18:02:51;8.50;86.70
5041;DHT22;2539;52.568;13.364;2023-04-06T18:05:19;8.40;87.80
5041;DHT22;2539;52.568;13.364;2023-04-06T18:07:45;8.30;88.10
5041;DHT22;2539;52.568;13.364;2023-04-06T18:10:11;8.30;88.40
5041;DHT22;2539;52.568;13.364;2023-04-06T18:12:37;8.20;89.00
5041;DHT22;2539;52.568;13.364;2023-04-06T18:15:03;8.10;89.90
5041;DHT22;2539;52.568;13.364;2023-04-06T18:22:23;7.90;92.00
5041;DHT22;2539;52.568;13.364;2023-04-06T18:24:49;7.80;92.70
5041;DHT22;2539;52.568;13.364;2023-04-06T18:27:15;7.80;93.50
5041;DHT22;2539;52.568;13.364;2023-04-06T18:32:10;7.70;94.60
5041;DHT22;2539;52.568;13.364;2023-04-06T18:37:04;7.80;95.10
5041;DHT22;2539;52.568;13.364;2023-04-06T18:51:45;7.50;96.10
5041;DHT22;2539;52.568;13.364;2023-04-06T19:06:36;7.10;99.40
5041;DHT22;2539;52.568;13.364;2023-04-06T19:09:02;7.00;99.60